Estació municipal de El Brull (Osona, P.N. del Montseny)

Consulta les dades en temps real de l'estació municipal de El Brull





Hora UTC 07:50
Temperatura 14.2 ºC
Humitat 72.5 %
Pressió 1013.1 hPa
Pluja 0.1 mm
Velocitat vent 4.0 km/h
Direcció vent S
Radiació solar 530.8 W/m²

Webcam

Dades diàries 2026-05-10



Hora UTC (hivern +1h; estiu +2h)
Temperatura (ºC) Humitat (%) Pressió (hPa) Velocitat vent (km/h) Precipitació (mm) Radiació solar (W/m²)
Hora UTC Aire Humitat Pressió Vel. Dir. Vel. Max Dir. Intent. màx 5 min. Rad. Sol.
00:10 9.2 94.8 1013.6 1.0 ENE 2.6 ESE 0.0 0.0
00:20 8.9 94.5 1013.5 1.0 NNE 2.6 NNE 0.0 0.0
00:30 8.6 94.6 1013.4 1.3 N 5.3 N 0.0 0.0
00:40 8.4 94.7 1013.3 1.9 N 3.3 N 0.0 0.0
00:50 8.5 95.1 1013.2 1.3 E 2.9 SSE 0.0 0.0
01:00 8.5 95.2 1013.2 4.0 SE 7.5 SE 0.0 0.0
01:10 8.5 95.2 1013.2 3.9 SE 6.9 SE 0.0 0.0
01:20 8.6 95.3 1013.0 5.3 SE 8.8 SSE 0.0 0.0
01:30 8.5 95.1 1013.0 3.5 SE 6.0 SE 0.0 0.0
01:40 8.6 95.2 1013.0 2.7 SE 5.3 SSE 0.0 0.0
01:50 8.6 95.2 1013.1 2.5 ESE 4.9 SE 0.0 0.0
02:00 8.7 95.2 1013.1 2.4 SE 4.9 S 0.0 0.0
02:10 8.7 95.2 1013.1 2.1 ESE 3.9 SE 0.0 0.0
02:20 8.7 95.1 1013.1 1.0 SSE 3.3 SE 0.0 0.0
02:30 8.7 95.1 1013.2 2.3 SE 4.5 SE 0.0 0.0
02:40 8.5 94.8 1013.1 2.6 ESE 5.4 ESE 0.0 0.0
02:50 8.6 95.0 1013.1 1.5 SSW 4.6 SE 0.0 0.0
03:00 8.4 94.7 1013.1 2.8 ESE 6.4 SE 0.0 0.0
03:10 8.4 94.7 1012.9 1.4 E 4.5 E 0.0 0.0
03:20 8.5 94.6 1012.8 2.2 ESE 8.7 ESE 0.0 0.0
03:30 8.4 94.4 1012.8 2.2 ESE 5.3 ESE 0.0 0.0
03:40 8.3 94.2 1012.7 2.4 NE 5.5 E 0.0 0.0
03:50 8.3 94.1 1012.6 2.7 ESE 6.8 NNE 0.0 0.0
04:00 8.4 94.0 1012.6 2.9 E 5.8 E 0.0 0.0
04:10 8.2 93.6 1012.5 2.8 ESE 7.6 E 0.0 0.0
04:20 8.1 93.4 1012.6 2.0 ESE 5.4 ESE 0.0 0.2
04:30 8.0 93.5 1012.7 2.5 ESE 6.9 SE 0.1 1.0
04:40 8.1 93.3 1012.7 1.7 E 5.6 SE 0.0 3.4
04:50 8.2 92.7 1012.7 2.7 SE 5.2 SE 0.0 6.9
05:00 8.2 92.4 1012.7 2.6 ESE 5.4 ESE 0.0 10.1
05:10 8.2 92.2 1012.7 2.5 E 7.1 E 0.0 13.1
05:20 8.2 92.4 1012.7 1.5 E 4.1 ENE 0.0 15.9
05:30 8.2 92.2 1012.6 2.5 ESE 7.2 E 0.0 19.3
05:40 8.5 91.8 1012.6 1.9 E 5.3 ESE 0.0 46.2
05:50 8.8 91.0 1012.7 2.3 SSE 7.6 SE 0.0 47.7
06:00 9.1 90.1 1012.7 4.1 SE 8.2 SE 0.0 121.6
06:10 9.5 89.2 1012.7 3.3 SSE 9.2 SE 0.0 228.7
06:20 10.8 86.3 1012.7 2.6 SE 5.1 SE 0.0 180.1
06:30 11.7 84.2 1012.8 2.3 SE 6.6 SE 0.0 150.0
06:40 11.6 81.8 1012.9 0.9 ENE 5.1 E 0.0 308.1
07:00 12.4 78.2 1013.0 1.1 SE 4.8 SE 0.0 376.0
07:10 13.0 74.8 1013.0 3.0 SW 5.4 S 0.0 407.7
07:20 13.1 73.2 1013.0 2.3 SSE 6.2 SE 0.0 438.2
07:30 13.9 72.9 1013.0 1.4 W 4.0 S 0.0 469.1
07:40 14.1 72.3 1013.1 2.2 S 6.5 SE 0.0 499.9
07:50 14.2 72.5 1013.1 4.0 S 8.6 S 0.0 530.8
Màxima 14.2 95.3 1013.6 5.3 SE 9.2 SE 0.1 530.8
Mínima 8.0 72.3 1012.5
Total 0.1